Turkeyfoot, Pennsylvania
Current Conditions -  °F | °C
As of 12:53 PM on Thursday 23 Oct 2014 (Local Time) from KHGR Reporting Station
Overcast Overcast  
Wind Chill: 58°   Ceiling: 3600
Heat Index: 58°   Visibility: 10mi
Dew Point: 44°   Wind: 14mph
Humidity: 60%   Direction: 310°NW
Pressure: 29.92"   Gusts: 32mph
Location:  39.9438°N, 77.6827°W
Report Text: KHGR 231653Z 31012G28KT 10SM OVC036 14/07 A2992 RMK AO2 PK WND 33028/1644 SLP143 T01440067
Loading
Personal Weather Stations






























Interactive Weather Map
Tropical Storm Tracking
New forecast layout! Learn more

10-Day Weather Forecast

Advertisements
Track Severe Weather on mobile